sensor_id;sensor_type;location;lat;lon;timestamp;temperature;humidity
22098;DHT22;11215;51.938;8.464;2023-04-02T00:02:47;10.10;71.80
22098;DHT22;11215;51.938;8.464;2023-04-02T00:07:50;10.00;71.70
22098;DHT22;11215;51.938;8.464;2023-04-02T00:15:27;9.90;71.60
22098;DHT22;11215;51.938;8.464;2023-04-02T00:17:52;9.90;71.60
22098;DHT22;11215;51.938;8.464;2023-04-02T00:20:18;9.80;71.70
22098;DHT22;11215;51.938;8.464;2023-04-02T00:22:44;9.80;71.80
22098;DHT22;11215;51.938;8.464;2023-04-02T00:25:12;9.80;71.90
22098;DHT22;11215;51.938;8.464;2023-04-02T00:27:38;9.80;72.00
22098;DHT22;11215;51.938;8.464;2023-04-02T00:30:05;9.80;72.00
22098;DHT22;11215;51.938;8.464;2023-04-02T00:32:33;9.70;72.00
22098;DHT22;11215;51.938;8.464;2023-04-02T00:35:00;9.70;72.00
22098;DHT22;11215;51.938;8.464;2023-04-02T00:37:27;9.70;72.10
22098;DHT22;11215;51.938;8.464;2023-04-02T00:39:59;9.70;72.10
22098;DHT22;11215;51.938;8.464;2023-04-02T00:42:29;9.60;72.00
22098;DHT22;11215;51.938;8.464;2023-04-02T00:44:56;9.60;71.90
22098;DHT22;11215;51.938;8.464;2023-04-02T00:47:32;9.60;72.00
22098;DHT22;11215;51.938;8.464;2023-04-02T00:50:22;9.60;71.90
22098;DHT22;11215;51.938;8.464;2023-04-02T00:52:50;9.50;71.70
22098;DHT22;11215;51.938;8.464;2023-04-02T00:57:48;9.50;71.90
22098;DHT22;11215;51.938;8.464;2023-04-02T01:05:49;9.40;71.70
22098;DHT22;11215;51.938;8.464;2023-04-02T01:08:27;9.40;71.80
22098;DHT22;11215;51.938;8.464;2023-04-02T01:13:46;9.30;71.80
22098;DHT22;11215;51.938;8.464;2023-04-02T01:21:40;9.20;72.10
22098;DHT22;11215;51.938;8.464;2023-04-02T01:24:12;9.20;72.00
22098;DHT22;11215;51.938;8.464;2023-04-02T01:26:57;9.20;72.10
22098;DHT22;11215;51.938;8.464;2023-04-02T01:29:29;9.20;72.10
22098;DHT22;11215;51.938;8.464;2023-04-02T01:32:00;9.20;72.00
22098;DHT22;11215;51.938;8.464;2023-04-02T01:34:28;9.10;72.00
22098;DHT22;11215;51.938;8.464;2023-04-02T01:43:02;9.10;71.80
22098;DHT22;11215;51.938;8.464;2023-04-02T01:45:23;9.00;71.90
22098;DHT22;11215;51.938;8.464;2023-04-02T01:47:50;9.00;72.00
22098;DHT22;11215;51.938;8.464;2023-04-02T01:50:20;9.00;72.10
22098;DHT22;11215;51.938;8.464;2023-04-02T01:53:04;9.00;72.10
22098;DHT22;11215;51.938;8.464;2023-04-02T01:55:49;9.00;72.10
22098;DHT22;11215;51.938;8.464;2023-04-02T01:58:21;9.00;72.00
22098;DHT22;11215;51.938;8.464;2023-04-02T02:01:04;9.00;72.00
22098;DHT22;11215;51.938;8.464;2023-04-02T02:03:31;9.00;72.00
22098;DHT22;11215;51.938;8.464;2023-04-02T02:05:57;9.00;72.00
22098;DHT22;11215;51.938;8.464;2023-04-02T02:08:40;9.00;71.90
22098;DHT22;11215;51.938;8.464;2023-04-02T02:11:14;8.90;71.90
22098;DHT22;11215;51.938;8.464;2023-04-02T02:13:46;8.90;71.80
22098;DHT22;11215;51.938;8.464;2023-04-02T02:16:16;8.90;71.80
22098;DHT22;11215;51.938;8.464;2023-04-02T02:18:50;8.90;71.70
22098;DHT22;11215;51.938;8.464;2023-04-02T02:21:39;8.80;71.40
22098;DHT22;11215;51.938;8.464;2023-04-02T02:24:25;8.80;71.50
22098;DHT22;11215;51.938;8.464;2023-04-02T02:30:18;8.80;71.50
22098;DHT22;11215;51.938;8.464;2023-04-02T02:32:52;8.80;71.30
22098;DHT22;11215;51.938;8.464;2023-04-02T02:35:31;8.70;71.30
22098;DHT22;11215;51.938;8.464;2023-04-02T02:38:25;8.70;71.40
22098;DHT22;11215;51.938;8.464;2023-04-02T02:40:57;8.70;71.40
22098;DHT22;11215;51.938;8.464;2023-04-02T02:43:23;8.60;71.40
22098;DHT22;11215;51.938;8.464;2023-04-02T02:45:52;8.60;71.40
22098;DHT22;11215;51.938;8.464;2023-04-02T02:48:22;8.60;71.30
22098;DHT22;11215;51.938;8.464;2023-04-02T02:50:49;8.60;71.30
22098;DHT22;11215;51.938;8.464;2023-04-02T02:53:21;8.60;71.50
22098;DHT22;11215;51.938;8.464;2023-04-02T02:55:52;8.50;71.40
22098;DHT22;11215;51.938;8.464;2023-04-02T02:58:24;8.50;71.60
22098;DHT22;11215;51.938;8.464;2023-04-02T03:00:53;8.50;71.60
22098;DHT22;11215;51.938;8.464;2023-04-02T03:03:25;8.40;71.50
22098;DHT22;11215;51.938;8.464;2023-04-02T03:05:55;8.50;71.70
22098;DHT22;11215;51.938;8.464;2023-04-02T03:08:34;8.40;71.80
22098;DHT22;11215;51.938;8.464;2023-04-02T03:14:13;8.40;71.70
22098;DHT22;11215;51.938;8.464;2023-04-02T03:16:45;8.40;71.70
22098;DHT22;11215;51.938;8.464;2023-04-02T03:19:23;8.40;71.60
22098;DHT22;11215;51.938;8.464;2023-04-02T03:21:58;8.40;71.40
22098;DHT22;11215;51.938;8.464;2023-04-02T03:24:55;8.40;71.30
22098;DHT22;11215;51.938;8.464;2023-04-02T03:27:35;8.40;71.40
22098;DHT22;11215;51.938;8.464;2023-04-02T03:33:16;8.30;71.40
22098;DHT22;11215;51.938;8.464;2023-04-02T03:36:09;8.30;71.30
22098;DHT22;11215;51.938;8.464;2023-04-02T03:38:46;8.30;71.40
22098;DHT22;11215;51.938;8.464;2023-04-02T03:41:59;8.20;71.40
22098;DHT22;11215;51.938;8.464;2023-04-02T03:44:25;8.20;71.40
22098;DHT22;11215;51.938;8.464;2023-04-02T03:47:00;8.20;71.30
22098;DHT22;11215;51.938;8.464;2023-04-02T03:49:40;8.20;71.40
22098;DHT22;11215;51.938;8.464;2023-04-02T03:52:35;8.20;71.40
22098;DHT22;11215;51.938;8.464;2023-04-02T03:55:14;8.20;71.30
22098;DHT22;11215;51.938;8.464;2023-04-02T04:03:09;8.10;70.90
22098;DHT22;11215;51.938;8.464;2023-04-02T04:05:48;8.10;70.90
22098;DHT22;11215;51.938;8.464;2023-04-02T04:08:22;8.10;70.80
22098;DHT22;11215;51.938;8.464;2023-04-02T04:10:56;8.00;70.90
22098;DHT22;11215;51.938;8.464;2023-04-02T04:13:37;8.00;70.90
22098;DHT22;11215;51.938;8.464;2023-04-02T04:16:08;8.00;70.90
22098;DHT22;11215;51.938;8.464;2023-04-02T04:21:18;7.90;70.80
22098;DHT22;11215;51.938;8.464;2023-04-02T04:23:54;7.90;70.80
22098;DHT22;11215;51.938;8.464;2023-04-02T04:26:51;7.90;70.90
22098;DHT22;11215;51.938;8.464;2023-04-02T04:29:26;7.80;70.60
22098;DHT22;11215;51.938;8.464;2023-04-02T04:31:57;7.80;70.60
22098;DHT22;11215;51.938;8.464;2023-04-02T04:34:45;7.80;70.80
22098;DHT22;11215;51.938;8.464;2023-04-02T04:37:18;7.80;70.80
22098;DHT22;11215;51.938;8.464;2023-04-02T04:40:01;7.80;70.90
22098;DHT22;11215;51.938;8.464;2023-04-02T04:42:33;7.80;70.60
22098;DHT22;11215;51.938;8.464;2023-04-02T04:45:07;7.80;70.70
22098;DHT22;11215;51.938;8.464;2023-04-02T04:47:35;7.80;70.70
22098;DHT22;11215;51.938;8.464;2023-04-02T04:50:28;7.70;70.70
22098;DHT22;11215;51.938;8.464;2023-04-02T04:52:55;7.70;70.50
22098;DHT22;11215;51.938;8.464;2023-04-02T04:58:21;7.70;70.30
22098;DHT22;11215;51.938;8.464;2023-04-02T05:00:57;7.70;70.30
22098;DHT22;11215;51.938;8.464;2023-04-02T05:03:36;7.70;70.40
22098;DHT22;11215;51.938;8.464;2023-04-02T05:09:06;7.60;70.00
22098;DHT22;11215;51.938;8.464;2023-04-02T05:11:44;7.60;70.20
22098;DHT22;11215;51.938;8.464;2023-04-02T05:14:22;7.60;70.30
22098;DHT22;11215;51.938;8.464;2023-04-02T05:17:14;7.60;70.50
22098;DHT22;11215;51.938;8.464;2023-04-02T05:19:49;7.60;70.50
22098;DHT22;11215;51.938;8.464;2023-04-02T05:25:24;7.60;70.40
22098;DHT22;11215;51.938;8.464;2023-04-02T05:28:06;7.60;70.20
22098;DHT22;11215;51.938;8.464;2023-04-02T05:30:51;7.50;70.10
22098;DHT22;11215;51.938;8.464;2023-04-02T05:33:29;7.50;70.40
22098;DHT22;11215;51.938;8.464;2023-04-02T05:36:08;7.50;70.40
22098;DHT22;11215;51.938;8.464;2023-04-02T05:38:38;7.50;70.20
22098;DHT22;11215;51.938;8.464;2023-04-02T05:47:09;7.50;70.10
22098;DHT22;11215;51.938;8.464;2023-04-02T05:50:08;7.50;70.10
22098;DHT22;11215;51.938;8.464;2023-04-02T05:52:47;7.50;70.10
22098;DHT22;11215;51.938;8.464;2023-04-02T05:55:28;7.50;70.30
22098;DHT22;11215;51.938;8.464;2023-04-02T05:57:59;7.50;70.30
22098;DHT22;11215;51.938;8.464;2023-04-02T06:03:12;7.40;70.10
22098;DHT22;11215;51.938;8.464;2023-04-02T06:05:43;7.50;70.20
22098;DHT22;11215;51.938;8.464;2023-04-02T06:09:12;7.50;70.20
22098;DHT22;11215;51.938;8.464;2023-04-02T06:11:25;7.40;69.80
22098;DHT22;11215;51.938;8.464;2023-04-02T06:13:56;7.40;70.10
22098;DHT22;11215;51.938;8.464;2023-04-02T06:16:25;7.50;70.30
22098;DHT22;11215;51.938;8.464;2023-04-02T06:18:51;7.50;70.20
22098;DHT22;11215;51.938;8.464;2023-04-02T06:21:20;7.50;70.20
22098;DHT22;11215;51.938;8.464;2023-04-02T06:23:53;7.50;70.00
22098;DHT22;11215;51.938;8.464;2023-04-02T06:26:38;7.50;70.00
22098;DHT22;11215;51.938;8.464;2023-04-02T06:29:32;7.50;69.90
22098;DHT22;11215;51.938;8.464;2023-04-02T06:32:09;7.50;69.80
22098;DHT22;11215;51.938;8.464;2023-04-02T06:34:37;7.50;70.10
22098;DHT22;11215;51.938;8.464;2023-04-02T06:37:29;7.50;70.10
22098;DHT22;11215;51.938;8.464;2023-04-02T06:39:57;7.50;70.00
22098;DHT22;11215;51.938;8.464;2023-04-02T06:42:55;7.60;70.20
22098;DHT22;11215;51.938;8.464;2023-04-02T06:52:24;7.60;69.60
22098;DHT22;11215;51.938;8.464;2023-04-02T06:54:54;7.60;69.70
22098;DHT22;11215;51.938;8.464;2023-04-02T06:57:19;7.60;69.80
22098;DHT22;11215;51.938;8.464;2023-04-02T06:59:45;7.70;70.00
22098;DHT22;11215;51.938;8.464;2023-04-02T07:02:34;7.70;70.00
22098;DHT22;11215;51.938;8.464;2023-04-02T07:05:07;7.70;69.50
22098;DHT22;11215;51.938;8.464;2023-04-02T07:07:36;7.70;69.70
22098;DHT22;11215;51.938;8.464;2023-04-02T07:10:02;7.70;69.90
22098;DHT22;11215;51.938;8.464;2023-04-02T07:12:28;7.80;69.90
22098;DHT22;11215;51.938;8.464;2023-04-02T07:14:53;7.80;69.70
22098;DHT22;11215;51.938;8.464;2023-04-02T07:17:19;7.80;69.60
22098;DHT22;11215;51.938;8.464;2023-04-02T07:19:46;7.80;69.40
22098;DHT22;11215;51.938;8.464;2023-04-02T07:22:15;7.80;69.40
22098;DHT22;11215;51.938;8.464;2023-04-02T07:24:41;7.80;69.20
22098;DHT22;11215;51.938;8.464;2023-04-02T07:27:09;7.80;70.10
22098;DHT22;11215;51.938;8.464;2023-04-02T07:29:35;7.80;69.10
22098;DHT22;11215;51.938;8.464;2023-04-02T07:32:10;7.80;69.10
22098;DHT22;11215;51.938;8.464;2023-04-02T07:34:37;7.90;69.30
22098;DHT22;11215;51.938;8.464;2023-04-02T07:37:03;7.90;69.10
22098;DHT22;11215;51.938;8.464;2023-04-02T07:39:29;7.90;68.90
22098;DHT22;11215;51.938;8.464;2023-04-02T07:42:00;7.90;68.60
22098;DHT22;11215;51.938;8.464;2023-04-02T07:44:26;7.90;68.20
22098;DHT22;11215;51.938;8.464;2023-04-02T07:46:52;7.80;68.40
22098;DHT22;11215;51.938;8.464;2023-04-02T07:49:18;7.90;68.30
22098;DHT22;11215;51.938;8.464;2023-04-02T07:51:44;7.80;68.50
22098;DHT22;11215;51.938;8.464;2023-04-02T07:54:10;7.80;68.40
22098;DHT22;11215;51.938;8.464;2023-04-02T07:56:37;7.80;68.20
22098;DHT22;11215;51.938;8.464;2023-04-02T07:59:03;7.80;68.40
22098;DHT22;11215;51.938;8.464;2023-04-02T08:01:29;7.80;68.30
22098;DHT22;11215;51.938;8.464;2023-04-02T08:04:00;7.80;68.40
22098;DHT22;11215;51.938;8.464;2023-04-02T08:06:26;7.80;68.20
22098;DHT22;11215;51.938;8.464;2023-04-02T08:08:52;7.80;68.10
22098;DHT22;11215;51.938;8.464;2023-04-02T08:11:18;7.90;68.20
22098;DHT22;11215;51.938;8.464;2023-04-02T08:13:44;7.90;68.10
22098;DHT22;11215;51.938;8.464;2023-04-02T08:16:10;7.90;68.00
22098;DHT22;11215;51.938;8.464;2023-04-02T08:18:36;7.90;67.90
22098;DHT22;11215;51.938;8.464;2023-04-02T08:21:05;7.90;67.90
22098;DHT22;11215;51.938;8.464;2023-04-02T08:23:31;7.90;67.60
22098;DHT22;11215;51.938;8.464;2023-04-02T08:25:56;8.00;67.90
22098;DHT22;11215;51.938;8.464;2023-04-02T08:28:22;8.00;67.70
22098;DHT22;11215;51.938;8.464;2023-04-02T08:30:48;8.00;67.80
22098;DHT22;11215;51.938;8.464;2023-04-02T08:33:14;8.00;67.60
22098;DHT22;11215;51.938;8.464;2023-04-02T08:35:40;8.00;67.50
22098;DHT22;11215;51.938;8.464;2023-04-02T08:38:06;8.10;67.80
22098;DHT22;11215;51.938;8.464;2023-04-02T08:40:37;8.10;67.70
22098;DHT22;11215;51.938;8.464;2023-04-02T08:48:56;8.20;67.10
22098;DHT22;11215;51.938;8.464;2023-04-02T08:51:29;8.30;67.00
22098;DHT22;11215;51.938;8.464;2023-04-02T08:54:02;8.30;67.50
22098;DHT22;11215;51.938;8.464;2023-04-02T08:56:45;8.30;66.70
22098;DHT22;11215;51.938;8.464;2023-04-02T09:04:46;8.40;66.70
22098;DHT22;11215;51.938;8.464;2023-04-02T09:07:13;8.40;67.00
22098;DHT22;11215;51.938;8.464;2023-04-02T09:09:40;8.40;67.00
22098;DHT22;11215;51.938;8.464;2023-04-02T09:12:18;8.50;67.10
22098;DHT22;11215;51.938;8.464;2023-04-02T09:17:24;8.60;66.30
22098;DHT22;11215;51.938;8.464;2023-04-02T09:19:54;8.60;66.00
22098;DHT22;11215;51.938;8.464;2023-04-02T09:22:23;8.70;66.40
22098;DHT22;11215;51.938;8.464;2023-04-02T09:24:54;8.70;66.20
22098;DHT22;11215;51.938;8.464;2023-04-02T09:27:24;8.70;66.00
22098;DHT22;11215;51.938;8.464;2023-04-02T09:33:01;8.80;65.60
22098;DHT22;11215;51.938;8.464;2023-04-02T09:35:33;8.90;67.00
22098;DHT22;11215;51.938;8.464;2023-04-02T09:38:26;9.00;65.90
22098;DHT22;11215;51.938;8.464;2023-04-02T09:43:30;9.10;65.90
22098;DHT22;11215;51.938;8.464;2023-04-02T09:48:41;9.20;65.00
22098;DHT22;11215;51.938;8.464;2023-04-02T09:51:17;9.30;65.20
22098;DHT22;11215;51.938;8.464;2023-04-02T09:56:22;9.30;64.70
22098;DHT22;11215;51.938;8.464;2023-04-02T09:59:24;9.30;64.20
22098;DHT22;11215;51.938;8.464;2023-04-02T10:07:03;9.40;63.50
22098;DHT22;11215;51.938;8.464;2023-04-02T10:09:33;9.50;64.40
22098;DHT22;11215;51.938;8.464;2023-04-02T10:12:02;9.50;64.20
22098;DHT22;11215;51.938;8.464;2023-04-02T10:14:32;9.60;64.10
22098;DHT22;11215;51.938;8.464;2023-04-02T10:17:41;9.60;63.90
22098;DHT22;11215;51.938;8.464;2023-04-02T10:20:19;9.60;63.30
22098;DHT22;11215;51.938;8.464;2023-04-02T10:22:47;9.70;62.70
22098;DHT22;11215;51.938;8.464;2023-04-02T10:25:14;9.70;63.50
22098;DHT22;11215;51.938;8.464;2023-04-02T10:27:49;9.70;63.00
22098;DHT22;11215;51.938;8.464;2023-04-02T10:33:29;9.80;62.60
22098;DHT22;11215;51.938;8.464;2023-04-02T10:49:34;9.80;62.70
22098;DHT22;11215;51.938;8.464;2023-04-02T10:52:48;9.90;61.80
22098;DHT22;11215;51.938;8.464;2023-04-02T10:54:58;9.90;62.20
22098;DHT22;11215;51.938;8.464;2023-04-02T10:57:33;9.90;62.40
22098;DHT22;11215;51.938;8.464;2023-04-02T11:00:13;9.90;62.20
22098;DHT22;11215;51.938;8.464;2023-04-02T11:08:28;10.00;61.70
22098;DHT22;11215;51.938;8.464;2023-04-02T11:11:00;10.00;62.80
22098;DHT22;11215;51.938;8.464;2023-04-02T11:13:31;10.10;62.90
22098;DHT22;11215;51.938;8.464;2023-04-02T11:16:01;10.20;62.60
22098;DHT22;11215;51.938;8.464;2023-04-02T11:18:30;10.20;62.60
22098;DHT22;11215;51.938;8.464;2023-04-02T11:24:02;10.30;61.70
22098;DHT22;11215;51.938;8.464;2023-04-02T11:26:39;10.30;61.10
22098;DHT22;11215;51.938;8.464;2023-04-02T11:31:43;10.30;61.00
22098;DHT22;11215;51.938;8.464;2023-04-02T11:34:57;10.30;61.30
22098;DHT22;11215;51.938;8.464;2023-04-02T11:36:59;10.30;61.10
22098;DHT22;11215;51.938;8.464;2023-04-02T11:39:54;10.30;60.90
22098;DHT22;11215;51.938;8.464;2023-04-02T11:42:28;10.40;60.80
22098;DHT22;11215;51.938;8.464;2023-04-02T11:44:58;10.40;61.10
22098;DHT22;11215;51.938;8.464;2023-04-02T11:47:26;10.40;60.50
22098;DHT22;11215;51.938;8.464;2023-04-02T11:49:58;10.40;60.70
22098;DHT22;11215;51.938;8.464;2023-04-02T11:55:03;10.40;60.30
22098;DHT22;11215;51.938;8.464;2023-04-02T12:11:04;10.70;61.10
22098;DHT22;11215;51.938;8.464;2023-04-02T12:16:15;10.80;59.90
22098;DHT22;11215;51.938;8.464;2023-04-02T12:18:47;10.80;59.20
22098;DHT22;11215;51.938;8.464;2023-04-02T12:21:21;10.90;59.70
22098;DHT22;11215;51.938;8.464;2023-04-02T12:23:47;10.90;60.20
22098;DHT22;11215;51.938;8.464;2023-04-02T12:26:29;11.00;60.50
22098;DHT22;11215;51.938;8.464;2023-04-02T12:29:25;11.00;60.00
22098;DHT22;11215;51.938;8.464;2023-04-02T12:31:55;11.10;59.80
22098;DHT22;11215;51.938;8.464;2023-04-02T12:34:23;11.20;60.00
22098;DHT22;11215;51.938;8.464;2023-04-02T12:36:56;11.30;60.00
22098;DHT22;11215;51.938;8.464;2023-04-02T12:39:24;11.30;59.60
22098;DHT22;11215;51.938;8.464;2023-04-02T12:41:50;11.40;59.70
22098;DHT22;11215;51.938;8.464;2023-04-02T12:44:18;11.40;59.40
22098;DHT22;11215;51.938;8.464;2023-04-02T12:46:46;11.50;59.00
22098;DHT22;11215;51.938;8.464;2023-04-02T12:51:41;11.50;58.90
22098;DHT22;11215;51.938;8.464;2023-04-02T12:54:14;11.50;59.10
22098;DHT22;11215;51.938;8.464;2023-04-02T12:56:40;11.50;58.60
22098;DHT22;11215;51.938;8.464;2023-04-02T12:59:29;11.60;59.30
22098;DHT22;11215;51.938;8.464;2023-04-02T13:02:00;11.70;57.80
22098;DHT22;11215;51.938;8.464;2023-04-02T13:04:27;11.70;58.10
22098;DHT22;11215;51.938;8.464;2023-04-02T13:06:53;11.80;58.30
22098;DHT22;11215;51.938;8.464;2023-04-02T13:09:33;11.80;58.20
22098;DHT22;11215;51.938;8.464;2023-04-02T13:11:59;11.80;57.40
22098;DHT22;11215;51.938;8.464;2023-04-02T13:14:26;11.80;58.60
22098;DHT22;11215;51.938;8.464;2023-04-02T13:16:53;11.90;58.70
22098;DHT22;11215;51.938;8.464;2023-04-02T13:19:31;11.90;58.50
22098;DHT22;11215;51.938;8.464;2023-04-02T13:22:26;12.00;58.10
22098;DHT22;11215;51.938;8.464;2023-04-02T13:24:46;12.10;57.90
22098;DHT22;11215;51.938;8.464;2023-04-02T13:27:12;12.10;58.20
22098;DHT22;11215;51.938;8.464;2023-04-02T13:29:38;12.10;57.90
22098;DHT22;11215;51.938;8.464;2023-04-02T13:32:06;12.10;57.70
22098;DHT22;11215;51.938;8.464;2023-04-02T13:34:35;12.10;57.20
22098;DHT22;11215;51.938;8.464;2023-04-02T13:37:01;12.10;57.10
22098;DHT22;11215;51.938;8.464;2023-04-02T13:39:30;12.10;57.00
22098;DHT22;11215;51.938;8.464;2023-04-02T13:42:01;12.10;56.70
22098;DHT22;11215;51.938;8.464;2023-04-02T13:44:32;12.10;56.30
22098;DHT22;11215;51.938;8.464;2023-04-02T13:46:58;12.00;56.60
22098;DHT22;11215;51.938;8.464;2023-04-02T13:49:24;12.00;56.90
22098;DHT22;11215;51.938;8.464;2023-04-02T13:51:55;12.00;57.00
22098;DHT22;11215;51.938;8.464;2023-04-02T13:54:28;12.00;56.30
22098;DHT22;11215;51.938;8.464;2023-04-02T13:56:56;12.00;56.90
22098;DHT22;11215;51.938;8.464;2023-04-02T13:59:22;12.00;56.70
22098;DHT22;11215;51.938;8.464;2023-04-02T14:01:50;11.90;56.40
22098;DHT22;11215;51.938;8.464;2023-04-02T14:04:21;11.90;56.10
22098;DHT22;11215;51.938;8.464;2023-04-02T14:06:51;11.90;55.80
22098;DHT22;11215;51.938;8.464;2023-04-02T14:09:31;11.90;56.00
22098;DHT22;11215;51.938;8.464;2023-04-02T14:18:05;11.90;56.10
22098;DHT22;11215;51.938;8.464;2023-04-02T14:21:07;11.90;56.70
22098;DHT22;11215;51.938;8.464;2023-04-02T14:24:18;11.90;56.20
22098;DHT22;11215;51.938;8.464;2023-04-02T14:32:34;12.20;55.70
22098;DHT22;11215;51.938;8.464;2023-04-02T14:35:21;12.20;55.80
22098;DHT22;11215;51.938;8.464;2023-04-02T14:40:43;12.20;55.80
22098;DHT22;11215;51.938;8.464;2023-04-02T14:45:50;12.20;55.90
22098;DHT22;11215;51.938;8.464;2023-04-02T14:51:29;12.30;54.90
22098;DHT22;11215;51.938;8.464;2023-04-02T14:57:03;12.40;54.90
22098;DHT22;11215;51.938;8.464;2023-04-02T14:59:49;12.40;55.50
22098;DHT22;11215;51.938;8.464;2023-04-02T15:02:45;12.40;54.50
22098;DHT22;11215;51.938;8.464;2023-04-02T15:05:31;12.50;54.70
22098;DHT22;11215;51.938;8.464;2023-04-02T15:08:04;12.50;54.20
22098;DHT22;11215;51.938;8.464;2023-04-02T15:10:50;12.50;55.40
22098;DHT22;11215;51.938;8.464;2023-04-02T15:13:21;12.60;54.80
22098;DHT22;11215;51.938;8.464;2023-04-02T15:16:03;12.60;54.90
22098;DHT22;11215;51.938;8.464;2023-04-02T15:18:30;12.60;54.70
22098;DHT22;11215;51.938;8.464;2023-04-02T15:31:44;12.50;53.90
22098;DHT22;11215;51.938;8.464;2023-04-02T15:45:21;12.60;53.70
22098;DHT22;11215;51.938;8.464;2023-04-02T15:56:57;12.60;53.70
22098;DHT22;11215;51.938;8.464;2023-04-02T15:59:28;12.60;53.60
22098;DHT22;11215;51.938;8.464;2023-04-02T16:05:13;12.60;54.30
22098;DHT22;11215;51.938;8.464;2023-04-02T16:10:40;12.50;54.40
22098;DHT22;11215;51.938;8.464;2023-04-02T16:13:32;12.60;54.80
22098;DHT22;11215;51.938;8.464;2023-04-02T16:16:21;12.60;53.40
22098;DHT22;11215;51.938;8.464;2023-04-02T16:24:35;12.50;53.90
22098;DHT22;11215;51.938;8.464;2023-04-02T16:27:37;12.50;54.50
22098;DHT22;11215;51.938;8.464;2023-04-02T16:41:27;12.50;53.80
22098;DHT22;11215;51.938;8.464;2023-04-02T16:46:32;12.50;53.20
22098;DHT22;11215;51.938;8.464;2023-04-02T16:49:35;12.40;53.10
22098;DHT22;11215;51.938;8.464;2023-04-02T16:58:00;12.30;52.60
22098;DHT22;11215;51.938;8.464;2023-04-02T17:00:53;12.30;53.40
22098;DHT22;11215;51.938;8.464;2023-04-02T17:06:08;12.30;53.30
22098;DHT22;11215;51.938;8.464;2023-04-02T17:09:14;12.30;53.90
22098;DHT22;11215;51.938;8.464;2023-04-02T17:14:58;12.50;53.30
22098;DHT22;11215;51.938;8.464;2023-04-02T17:17:25;12.50;53.10
22098;DHT22;11215;51.938;8.464;2023-04-02T17:19:55;12.60;54.10
22098;DHT22;11215;51.938;8.464;2023-04-02T17:22:22;12.70;53.30
22098;DHT22;11215;51.938;8.464;2023-04-02T17:29:51;12.70;52.80
22098;DHT22;11215;51.938;8.464;2023-04-02T17:32:23;12.70;52.80
22098;DHT22;11215;51.938;8.464;2023-04-02T17:34:50;12.70;52.80
22098;DHT22;11215;51.938;8.464;2023-04-02T17:37:24;12.70;53.20
22098;DHT22;11215;51.938;8.464;2023-04-02T17:43:06;12.60;51.80
22098;DHT22;11215;51.938;8.464;2023-04-02T17:45:44;12.60;52.40
22098;DHT22;11215;51.938;8.464;2023-04-02T17:48:50;12.50;52.70
22098;DHT22;11215;51.938;8.464;2023-04-02T17:55:02;12.40;53.20
22098;DHT22;11215;51.938;8.464;2023-04-02T17:57:17;12.40;52.20
22098;DHT22;11215;51.938;8.464;2023-04-02T18:04:03;12.30;52.30
22098;DHT22;11215;51.938;8.464;2023-04-02T18:22:34;11.90;52.90
22098;DHT22;11215;51.938;8.464;2023-04-02T18:25:39;11.80;52.80
22098;DHT22;11215;51.938;8.464;2023-04-02T18:30:56;11.80;52.90
22098;DHT22;11215;51.938;8.464;2023-04-02T18:38:57;11.70;53.80
22098;DHT22;11215;51.938;8.464;2023-04-02T18:41:35;11.60;54.00
22098;DHT22;11215;51.938;8.464;2023-04-02T18:44:18;11.70;54.30
22098;DHT22;11215;51.938;8.464;2023-04-02T18:50:13;11.60;53.60
22098;DHT22;11215;51.938;8.464;2023-04-02T18:52:43;11.60;53.70
22098;DHT22;11215;51.938;8.464;2023-04-02T18:57:44;11.50;54.00
22098;DHT22;11215;51.938;8.464;2023-04-02T19:00:24;11.60;54.30
22098;DHT22;11215;51.938;8.464;2023-04-02T19:10:38;11.50;54.40
22098;DHT22;11215;51.938;8.464;2023-04-02T19:13:13;11.50;54.60
22098;DHT22;11215;51.938;8.464;2023-04-02T19:32:43;11.30;55.10
22098;DHT22;11215;51.938;8.464;2023-04-02T19:35:29;11.30;55.40
22098;DHT22;11215;51.938;8.464;2023-04-02T19:40:57;11.30;55.10
22098;DHT22;11215;51.938;8.464;2023-04-02T19:43:23;11.20;55.20
22098;DHT22;11215;51.938;8.464;2023-04-02T19:45:49;11.20;55.50
22098;DHT22;11215;51.938;8.464;2023-04-02T19:48:21;11.20;55.60
22098;DHT22;11215;51.938;8.464;2023-04-02T19:50:48;11.20;55.80
22098;DHT22;11215;51.938;8.464;2023-04-02T19:53:15;11.10;55.90
22098;DHT22;11215;51.938;8.464;2023-04-02T19:55:41;11.10;56.00
22098;DHT22;11215;51.938;8.464;2023-04-02T19:58:30;11.10;56.00
22098;DHT22;11215;51.938;8.464;2023-04-02T20:00:56;11.00;55.90
22098;DHT22;11215;51.938;8.464;2023-04-02T20:03:22;11.10;56.00
22098;DHT22;11215;51.938;8.464;2023-04-02T20:05:48;11.00;55.90
22098;DHT22;11215;51.938;8.464;2023-04-02T20:08:14;11.00;55.70
22098;DHT22;11215;51.938;8.464;2023-04-02T20:10:41;10.90;55.50
22098;DHT22;11215;51.938;8.464;2023-04-02T20:13:06;10.90;55.50
22098;DHT22;11215;51.938;8.464;2023-04-02T20:15:33;10.90;55.50
22098;DHT22;11215;51.938;8.464;2023-04-02T20:17:59;10.90;55.30
22098;DHT22;11215;51.938;8.464;2023-04-02T20:20:25;10.90;55.30
22098;DHT22;11215;51.938;8.464;2023-04-02T20:22:51;10.90;55.30
22098;DHT22;11215;51.938;8.464;2023-04-02T20:25:17;10.80;55.20
22098;DHT22;11215;51.938;8.464;2023-04-02T20:27:43;10.70;55.10
22098;DHT22;11215;51.938;8.464;2023-04-02T20:30:08;10.70;54.90
22098;DHT22;11215;51.938;8.464;2023-04-02T20:32:34;10.70;54.90
22098;DHT22;11215;51.938;8.464;2023-04-02T20:35:01;10.70;55.00
22098;DHT22;11215;51.938;8.464;2023-04-02T20:37:27;10.70;54.90
22098;DHT22;11215;51.938;8.464;2023-04-02T20:39:53;10.60;55.20
22098;DHT22;11215;51.938;8.464;2023-04-02T20:42:19;10.60;54.60
22098;DHT22;11215;51.938;8.464;2023-04-02T20:44:44;10.60;54.60
22098;DHT22;11215;51.938;8.464;2023-04-02T20:47:10;10.50;54.60
22098;DHT22;11215;51.938;8.464;2023-04-02T20:49:36;10.50;54.60
22098;DHT22;11215;51.938;8.464;2023-04-02T20:52:02;10.40;54.60
22098;DHT22;11215;51.938;8.464;2023-04-02T20:54:28;10.30;54.60
22098;DHT22;11215;51.938;8.464;2023-04-02T20:56:53;10.30;54.40
22098;DHT22;11215;51.938;8.464;2023-04-02T20:59:19;10.30;54.40
22098;DHT22;11215;51.938;8.464;2023-04-02T21:01:45;10.30;54.60
22098;DHT22;11215;51.938;8.464;2023-04-02T21:04:10;10.20;54.50
22098;DHT22;11215;51.938;8.464;2023-04-02T21:06:38;10.20;54.50
22098;DHT22;11215;51.938;8.464;2023-04-02T21:09:07;10.10;54.60
22098;DHT22;11215;51.938;8.464;2023-04-02T21:11:34;10.10;54.70
22098;DHT22;11215;51.938;8.464;2023-04-02T21:14:00;10.10;54.80
22098;DHT22;11215;51.938;8.464;2023-04-02T21:16:27;10.00;55.00
22098;DHT22;11215;51.938;8.464;2023-04-02T21:18:55;10.00;55.10
22098;DHT22;11215;51.938;8.464;2023-04-02T21:21:22;9.90;55.10
22098;DHT22;11215;51.938;8.464;2023-04-02T21:24:03;9.90;55.30
22098;DHT22;11215;51.938;8.464;2023-04-02T21:26:31;9.90;55.40
22098;DHT22;11215;51.938;8.464;2023-04-02T21:28:57;9.80;55.30
22098;DHT22;11215;51.938;8.464;2023-04-02T21:31:25;9.80;55.40
22098;DHT22;11215;51.938;8.464;2023-04-02T21:33:53;9.80;55.40
22098;DHT22;11215;51.938;8.464;2023-04-02T21:36:30;9.80;55.30